sensor_id;sensor_type;location;lat;lon;timestamp;P1;durP1;ratioP1;P2;durP2;ratioP2
60038;SDS011;45916;52.734;6.544;2023-04-08T00:01:09;20.52;;;15.02;;
60038;SDS011;45916;52.734;6.544;2023-04-08T00:03:35;17.85;;;14.77;;
60038;SDS011;45916;52.734;6.544;2023-04-08T00:06:01;18.92;;;14.35;;
60038;SDS011;45916;52.734;6.544;2023-04-08T00:08:28;17.48;;;15.10;;
60038;SDS011;45916;52.734;6.544;2023-04-08T00:10:53;18.95;;;14.88;;
60038;SDS011;45916;52.734;6.544;2023-04-08T00:13:19;18.25;;;13.63;;
60038;SDS011;45916;52.734;6.544;2023-04-08T00:15:45;18.10;;;14.85;;
60038;SDS011;45916;52.734;6.544;2023-04-08T00:18:10;15.38;;;13.45;;
60038;SDS011;45916;52.734;6.544;2023-04-08T00:20:38;20.13;;;15.00;;
60038;SDS011;45916;52.734;6.544;2023-04-08T00:23:04;18.70;;;14.07;;
60038;SDS011;45916;52.734;6.544;2023-04-08T00:25:29;17.80;;;14.48;;
60038;SDS011;45916;52.734;6.544;2023-04-08T00:27:55;18.50;;;14.77;;
60038;SDS011;45916;52.734;6.544;2023-04-08T00:30:21;16.35;;;14.05;;
60038;SDS011;45916;52.734;6.544;2023-04-08T00:32:47;19.58;;;15.23;;
60038;SDS011;45916;52.734;6.544;2023-04-08T00:35:12;20.33;;;14.65;;
60038;SDS011;45916;52.734;6.544;2023-04-08T00:37:38;17.90;;;14.18;;
60038;SDS011;45916;52.734;6.544;2023-04-08T00:40:05;21.48;;;15.43;;
60038;SDS011;45916;52.734;6.544;2023-04-08T00:42:31;19.33;;;14.07;;
60038;SDS011;45916;52.734;6.544;2023-04-08T00:44:56;19.17;;;14.18;;
60038;SDS011;45916;52.734;6.544;2023-04-08T00:47:22;17.45;;;14.25;;
60038;SDS011;45916;52.734;6.544;2023-04-08T00:49:48;20.23;;;14.82;;
60038;SDS011;45916;52.734;6.544;2023-04-08T00:52:14;18.70;;;14.15;;
60038;SDS011;45916;52.734;6.544;2023-04-08T00:54:41;20.85;;;14.45;;
60038;SDS011;45916;52.734;6.544;2023-04-08T00:57:06;19.08;;;15.65;;
60038;SDS011;45916;52.734;6.544;2023-04-08T00:59:32;20.45;;;14.95;;
60038;SDS011;45916;52.734;6.544;2023-04-08T01:07:27;19.52;;;16.15;;
60038;SDS011;45916;52.734;6.544;2023-04-08T01:10:12;19.45;;;15.48;;
60038;SDS011;45916;52.734;6.544;2023-04-08T01:12:53;22.42;;;16.00;;
60038;SDS011;45916;52.734;6.544;2023-04-08T01:15:28;18.15;;;15.18;;
60038;SDS011;45916;52.734;6.544;2023-04-08T01:17:55;19.38;;;15.77;;
60038;SDS011;45916;52.734;6.544;2023-04-08T01:20:23;18.02;;;15.60;;
60038;SDS011;45916;52.734;6.544;2023-04-08T01:25:32;22.10;;;16.95;;
60038;SDS011;45916;52.734;6.544;2023-04-08T01:27:59;21.33;;;16.25;;
60038;SDS011;45916;52.734;6.544;2023-04-08T01:32:54;21.05;;;16.17;;
60038;SDS011;45916;52.734;6.544;2023-04-08T01:35:22;20.25;;;16.35;;
60038;SDS011;45916;52.734;6.544;2023-04-08T01:37:49;23.83;;;17.52;;
60038;SDS011;45916;52.734;6.544;2023-04-08T01:40:16;24.33;;;17.00;;
60038;SDS011;45916;52.734;6.544;2023-04-08T01:42:44;20.00;;;16.63;;
60038;SDS011;45916;52.734;6.544;2023-04-08T01:45:14;22.55;;;17.33;;
60038;SDS011;45916;52.734;6.544;2023-04-08T01:47:42;21.02;;;17.17;;
60038;SDS011;45916;52.734;6.544;2023-04-08T01:50:15;21.48;;;17.83;;
60038;SDS011;45916;52.734;6.544;2023-04-08T01:52:42;24.95;;;19.58;;
60038;SDS011;45916;52.734;6.544;2023-04-08T01:55:08;25.17;;;19.42;;
60038;SDS011;45916;52.734;6.544;2023-04-08T01:57:35;25.80;;;19.83;;
60038;SDS011;45916;52.734;6.544;2023-04-08T02:00:04;23.38;;;19.52;;
60038;SDS011;45916;52.734;6.544;2023-04-08T02:02:32;26.20;;;19.88;;
60038;SDS011;45916;52.734;6.544;2023-04-08T02:05:01;23.42;;;19.65;;
60038;SDS011;45916;52.734;6.544;2023-04-08T02:07:26;25.50;;;20.05;;
60038;SDS011;45916;52.734;6.544;2023-04-08T02:09:52;26.42;;;21.33;;
60038;SDS011;45916;52.734;6.544;2023-04-08T02:12:18;24.55;;;19.58;;
60038;SDS011;45916;52.734;6.544;2023-04-08T02:14:44;23.50;;;20.92;;
60038;SDS011;45916;52.734;6.544;2023-04-08T02:17:10;27.65;;;21.80;;
60038;SDS011;45916;52.734;6.544;2023-04-08T02:22:22;27.90;;;20.15;;
60038;SDS011;45916;52.734;6.544;2023-04-08T02:24:54;26.20;;;20.85;;
60038;SDS011;45916;52.734;6.544;2023-04-08T02:27:22;30.47;;;21.73;;
60038;SDS011;45916;52.734;6.544;2023-04-08T02:29:51;25.45;;;20.95;;
60038;SDS011;45916;52.734;6.544;2023-04-08T02:32:20;25.10;;;20.75;;
60038;SDS011;45916;52.734;6.544;2023-04-08T02:37:15;27.60;;;21.63;;
60038;SDS011;45916;52.734;6.544;2023-04-08T02:39:40;26.58;;;19.58;;
60038;SDS011;45916;52.734;6.544;2023-04-08T02:42:06;28.67;;;21.92;;
60038;SDS011;45916;52.734;6.544;2023-04-08T02:44:32;28.02;;;22.77;;
60038;SDS011;45916;52.734;6.544;2023-04-08T02:46:57;29.17;;;23.00;;
60038;SDS011;45916;52.734;6.544;2023-04-08T02:49:23;29.20;;;22.80;;
60038;SDS011;45916;52.734;6.544;2023-04-08T02:51:49;30.02;;;23.38;;
60038;SDS011;45916;52.734;6.544;2023-04-08T02:54:14;27.65;;;23.65;;
60038;SDS011;45916;52.734;6.544;2023-04-08T02:56:40;30.05;;;22.85;;
60038;SDS011;45916;52.734;6.544;2023-04-08T02:59:06;30.00;;;22.27;;
60038;SDS011;45916;52.734;6.544;2023-04-08T03:01:32;27.40;;;22.52;;
60038;SDS011;45916;52.734;6.544;2023-04-08T03:03:57;27.88;;;23.20;;
60038;SDS011;45916;52.734;6.544;2023-04-08T03:06:23;29.17;;;24.30;;
60038;SDS011;45916;52.734;6.544;2023-04-08T03:08:49;30.70;;;23.85;;
60038;SDS011;45916;52.734;6.544;2023-04-08T03:11:14;33.00;;;25.60;;
60038;SDS011;45916;52.734;6.544;2023-04-08T03:13:40;31.00;;;24.85;;
60038;SDS011;45916;52.734;6.544;2023-04-08T03:16:06;31.33;;;25.15;;
60038;SDS011;45916;52.734;6.544;2023-04-08T03:18:32;32.60;;;25.95;;
60038;SDS011;45916;52.734;6.544;2023-04-08T03:20:58;34.63;;;26.15;;
60038;SDS011;45916;52.734;6.544;2023-04-08T03:23:24;34.13;;;25.83;;
60038;SDS011;45916;52.734;6.544;2023-04-08T03:25:49;33.95;;;26.90;;
60038;SDS011;45916;52.734;6.544;2023-04-08T03:28:15;33.72;;;26.92;;
60038;SDS011;45916;52.734;6.544;2023-04-08T03:30:41;36.05;;;26.75;;
60038;SDS011;45916;52.734;6.544;2023-04-08T03:33:06;34.80;;;28.25;;
60038;SDS011;45916;52.734;6.544;2023-04-08T03:35:32;40.47;;;28.05;;
60038;SDS011;45916;52.734;6.544;2023-04-08T03:37:58;35.58;;;27.70;;
60038;SDS011;45916;52.734;6.544;2023-04-08T03:40:24;40.50;;;29.55;;
60038;SDS011;45916;52.734;6.544;2023-04-08T03:42:50;38.00;;;28.17;;
60038;SDS011;45916;52.734;6.544;2023-04-08T03:45:15;36.85;;;30.05;;
60038;SDS011;45916;52.734;6.544;2023-04-08T03:47:41;37.13;;;30.35;;
60038;SDS011;45916;52.734;6.544;2023-04-08T03:50:07;35.95;;;29.30;;
60038;SDS011;45916;52.734;6.544;2023-04-08T03:52:33;39.22;;;29.90;;
60038;SDS011;45916;52.734;6.544;2023-04-08T03:54:58;37.22;;;29.90;;
60038;SDS011;45916;52.734;6.544;2023-04-08T03:57:24;38.53;;;30.10;;
60038;SDS011;45916;52.734;6.544;2023-04-08T03:59:50;41.92;;;32.50;;
60038;SDS011;45916;52.734;6.544;2023-04-08T04:02:15;37.63;;;30.25;;
60038;SDS011;45916;52.734;6.544;2023-04-08T04:04:41;40.25;;;30.48;;
60038;SDS011;45916;52.734;6.544;2023-04-08T04:07:07;38.42;;;31.45;;
60038;SDS011;45916;52.734;6.544;2023-04-08T04:09:32;41.83;;;31.77;;
60038;SDS011;45916;52.734;6.544;2023-04-08T04:11:58;39.70;;;32.45;;
60038;SDS011;45916;52.734;6.544;2023-04-08T04:14:24;43.65;;;33.33;;
60038;SDS011;45916;52.734;6.544;2023-04-08T04:16:49;42.97;;;33.10;;
60038;SDS011;45916;52.734;6.544;2023-04-08T04:19:15;46.30;;;34.95;;
60038;SDS011;45916;52.734;6.544;2023-04-08T04:21:42;42.30;;;33.10;;
60038;SDS011;45916;52.734;6.544;2023-04-08T04:24:08;45.83;;;33.72;;
60038;SDS011;45916;52.734;6.544;2023-04-08T04:26:33;44.70;;;32.67;;
60038;SDS011;45916;52.734;6.544;2023-04-08T04:28:59;40.83;;;32.88;;
60038;SDS011;45916;52.734;6.544;2023-04-08T04:31:25;43.85;;;33.10;;
60038;SDS011;45916;52.734;6.544;2023-04-08T04:33:51;44.88;;;33.17;;
60038;SDS011;45916;52.734;6.544;2023-04-08T04:36:16;43.25;;;32.80;;
60038;SDS011;45916;52.734;6.544;2023-04-08T04:38:42;48.30;;;34.60;;
60038;SDS011;45916;52.734;6.544;2023-04-08T04:41:08;43.33;;;33.80;;
60038;SDS011;45916;52.734;6.544;2023-04-08T04:43:34;43.08;;;33.05;;
60038;SDS011;45916;52.734;6.544;2023-04-08T04:45:59;46.03;;;33.83;;
60038;SDS011;45916;52.734;6.544;2023-04-08T04:48:26;42.22;;;33.20;;
60038;SDS011;45916;52.734;6.544;2023-04-08T04:50:55;42.90;;;32.10;;
60038;SDS011;45916;52.734;6.544;2023-04-08T04:53:21;45.58;;;34.28;;
60038;SDS011;45916;52.734;6.544;2023-04-08T04:55:47;42.88;;;32.72;;
60038;SDS011;45916;52.734;6.544;2023-04-08T04:58:14;46.13;;;32.45;;
60038;SDS011;45916;52.734;6.544;2023-04-08T05:00:40;45.67;;;34.45;;
60038;SDS011;45916;52.734;6.544;2023-04-08T05:03:06;45.25;;;33.28;;
60038;SDS011;45916;52.734;6.544;2023-04-08T05:05:31;44.63;;;32.78;;
60038;SDS011;45916;52.734;6.544;2023-04-08T05:07:57;41.33;;;32.28;;
60038;SDS011;45916;52.734;6.544;2023-04-08T05:10:23;43.55;;;32.90;;
60038;SDS011;45916;52.734;6.544;2023-04-08T05:12:48;48.65;;;32.90;;
60038;SDS011;45916;52.734;6.544;2023-04-08T05:15:14;44.25;;;31.90;;
60038;SDS011;45916;52.734;6.544;2023-04-08T05:17:40;49.55;;;34.72;;
60038;SDS011;45916;52.734;6.544;2023-04-08T05:20:06;48.05;;;33.42;;
60038;SDS011;45916;52.734;6.544;2023-04-08T05:22:32;52.90;;;36.25;;
60038;SDS011;45916;52.734;6.544;2023-04-08T05:24:58;45.08;;;33.50;;
60038;SDS011;45916;52.734;6.544;2023-04-08T05:27:24;50.95;;;34.05;;
60038;SDS011;45916;52.734;6.544;2023-04-08T05:29:50;47.78;;;32.50;;
60038;SDS011;45916;52.734;6.544;2023-04-08T05:32:16;45.92;;;32.05;;
60038;SDS011;45916;52.734;6.544;2023-04-08T05:34:42;42.03;;;30.25;;
60038;SDS011;45916;52.734;6.544;2023-04-08T05:37:07;36.58;;;28.25;;
60038;SDS011;45916;52.734;6.544;2023-04-08T05:39:33;33.35;;;26.08;;
60038;SDS011;45916;52.734;6.544;2023-04-08T05:41:59;35.28;;;27.42;;
60038;SDS011;45916;52.734;6.544;2023-04-08T05:44:25;32.75;;;25.02;;
60038;SDS011;45916;52.734;6.544;2023-04-08T05:46:50;35.78;;;26.13;;
60038;SDS011;45916;52.734;6.544;2023-04-08T05:49:16;31.23;;;24.90;;
60038;SDS011;45916;52.734;6.544;2023-04-08T05:51:42;30.60;;;23.98;;
60038;SDS011;45916;52.734;6.544;2023-04-08T05:54:08;27.77;;;22.20;;
60038;SDS011;45916;52.734;6.544;2023-04-08T05:56:34;27.60;;;22.60;;
60038;SDS011;45916;52.734;6.544;2023-04-08T05:59:00;29.75;;;22.92;;
60038;SDS011;45916;52.734;6.544;2023-04-08T06:01:25;30.05;;;22.85;;
60038;SDS011;45916;52.734;6.544;2023-04-08T06:03:51;27.30;;;22.60;;
60038;SDS011;45916;52.734;6.544;2023-04-08T06:06:17;30.00;;;23.40;;
60038;SDS011;45916;52.734;6.544;2023-04-08T06:08:43;29.67;;;22.35;;
60038;SDS011;45916;52.734;6.544;2023-04-08T06:11:08;28.30;;;23.52;;
60038;SDS011;45916;52.734;6.544;2023-04-08T06:13:34;30.85;;;24.45;;
60038;SDS011;45916;52.734;6.544;2023-04-08T06:16:13;29.65;;;24.75;;
60038;SDS011;45916;52.734;6.544;2023-04-08T06:18:41;28.67;;;23.20;;
60038;SDS011;45916;52.734;6.544;2023-04-08T06:21:07;32.42;;;23.63;;
60038;SDS011;45916;52.734;6.544;2023-04-08T06:23:33;30.33;;;24.10;;
60038;SDS011;45916;52.734;6.544;2023-04-08T06:25:58;32.95;;;24.77;;
60038;SDS011;45916;52.734;6.544;2023-04-08T06:28:24;28.42;;;23.33;;
60038;SDS011;45916;52.734;6.544;2023-04-08T06:30:50;29.08;;;22.48;;
60038;SDS011;45916;52.734;6.544;2023-04-08T06:33:15;32.90;;;26.13;;
60038;SDS011;45916;52.734;6.544;2023-04-08T06:35:41;30.80;;;23.27;;
60038;SDS011;45916;52.734;6.544;2023-04-08T06:38:07;32.35;;;24.77;;
60038;SDS011;45916;52.734;6.544;2023-04-08T06:40:32;34.00;;;25.85;;
60038;SDS011;45916;52.734;6.544;2023-04-08T06:42:58;32.92;;;25.95;;
60038;SDS011;45916;52.734;6.544;2023-04-08T06:45:24;32.58;;;24.95;;
60038;SDS011;45916;52.734;6.544;2023-04-08T06:47:50;32.00;;;25.38;;
60038;SDS011;45916;52.734;6.544;2023-04-08T06:50:15;33.72;;;24.95;;
60038;SDS011;45916;52.734;6.544;2023-04-08T06:52:41;32.58;;;23.83;;
60038;SDS011;45916;52.734;6.544;2023-04-08T06:55:07;35.05;;;26.23;;
60038;SDS011;45916;52.734;6.544;2023-04-08T06:57:33;32.65;;;25.15;;
60038;SDS011;45916;52.734;6.544;2023-04-08T06:59:58;32.95;;;24.50;;
60038;SDS011;45916;52.734;6.544;2023-04-08T07:02:24;32.45;;;24.02;;
60038;SDS011;45916;52.734;6.544;2023-04-08T07:04:50;32.83;;;25.00;;
60038;SDS011;45916;52.734;6.544;2023-04-08T07:07:15;36.20;;;25.42;;
60038;SDS011;45916;52.734;6.544;2023-04-08T07:09:41;35.60;;;25.90;;
60038;SDS011;45916;52.734;6.544;2023-04-08T07:12:09;34.65;;;26.55;;
60038;SDS011;45916;52.734;6.544;2023-04-08T07:14:36;34.88;;;25.63;;
60038;SDS011;45916;52.734;6.544;2023-04-08T07:17:01;31.05;;;23.98;;
60038;SDS011;45916;52.734;6.544;2023-04-08T07:19:27;30.45;;;24.08;;
60038;SDS011;45916;52.734;6.544;2023-04-08T07:21:53;32.85;;;22.67;;
60038;SDS011;45916;52.734;6.544;2023-04-08T07:24:18;27.63;;;22.63;;
60038;SDS011;45916;52.734;6.544;2023-04-08T07:26:44;27.73;;;22.52;;
60038;SDS011;45916;52.734;6.544;2023-04-08T07:29:10;27.05;;;21.63;;
60038;SDS011;45916;52.734;6.544;2023-04-08T07:31:36;25.42;;;20.52;;
60038;SDS011;45916;52.734;6.544;2023-04-08T07:34:01;26.05;;;21.52;;
60038;SDS011;45916;52.734;6.544;2023-04-08T07:36:27;22.70;;;19.75;;
60038;SDS011;45916;52.734;6.544;2023-04-08T07:38:53;24.58;;;20.30;;
60038;SDS011;45916;52.734;6.544;2023-04-08T07:41:19;24.17;;;19.90;;
60038;SDS011;45916;52.734;6.544;2023-04-08T07:43:45;21.13;;;17.88;;
60038;SDS011;45916;52.734;6.544;2023-04-08T07:46:11;21.67;;;18.70;;
60038;SDS011;45916;52.734;6.544;2023-04-08T07:48:36;22.63;;;18.75;;
60038;SDS011;45916;52.734;6.544;2023-04-08T07:51:06;20.88;;;18.67;;
60038;SDS011;45916;52.734;6.544;2023-04-08T07:53:33;20.67;;;18.38;;
60038;SDS011;45916;52.734;6.544;2023-04-08T07:55:59;20.20;;;18.05;;
60038;SDS011;45916;52.734;6.544;2023-04-08T07:58:25;18.05;;;16.17;;
60038;SDS011;45916;52.734;6.544;2023-04-08T08:00:51;18.25;;;16.38;;
60038;SDS011;45916;52.734;6.544;2023-04-08T08:03:17;17.92;;;16.10;;
60038;SDS011;45916;52.734;6.544;2023-04-08T08:05:43;18.42;;;16.35;;
60038;SDS011;45916;52.734;6.544;2023-04-08T08:08:09;19.05;;;17.05;;
60038;SDS011;45916;52.734;6.544;2023-04-08T08:10:37;18.55;;;16.70;;
60038;SDS011;45916;52.734;6.544;2023-04-08T08:13:04;17.13;;;15.35;;
60038;SDS011;45916;52.734;6.544;2023-04-08T08:15:30;17.58;;;15.90;;
60038;SDS011;45916;52.734;6.544;2023-04-08T08:17:56;18.25;;;16.35;;
60038;SDS011;45916;52.734;6.544;2023-04-08T08:20:22;19.75;;;17.75;;
60038;SDS011;45916;52.734;6.544;2023-04-08T08:22:48;18.13;;;16.05;;
60038;SDS011;45916;52.734;6.544;2023-04-08T08:25:13;17.42;;;15.63;;
60038;SDS011;45916;52.734;6.544;2023-04-08T08:27:39;17.17;;;15.13;;
60038;SDS011;45916;52.734;6.544;2023-04-08T08:30:06;17.77;;;15.98;;
60038;SDS011;45916;52.734;6.544;2023-04-08T08:32:33;17.33;;;15.53;;
60038;SDS011;45916;52.734;6.544;2023-04-08T08:34:59;17.05;;;15.30;;
60038;SDS011;45916;52.734;6.544;2023-04-08T08:37:25;16.75;;;15.07;;
60038;SDS011;45916;52.734;6.544;2023-04-08T08:39:51;16.17;;;14.57;;
60038;SDS011;45916;52.734;6.544;2023-04-08T08:42:25;16.58;;;14.88;;
60038;SDS011;45916;52.734;6.544;2023-04-08T08:44:51;19.55;;;16.20;;
60038;SDS011;45916;52.734;6.544;2023-04-08T08:47:18;15.13;;;13.53;;
60038;SDS011;45916;52.734;6.544;2023-04-08T08:49:44;15.68;;;14.07;;
60038;SDS011;45916;52.734;6.544;2023-04-08T08:52:14;16.23;;;14.48;;
60038;SDS011;45916;52.734;6.544;2023-04-08T08:54:42;15.90;;;14.30;;
60038;SDS011;45916;52.734;6.544;2023-04-08T08:57:18;15.68;;;14.00;;
60038;SDS011;45916;52.734;6.544;2023-04-08T08:59:47;14.73;;;13.10;;
60038;SDS011;45916;52.734;6.544;2023-04-08T09:02:26;16.95;;;13.50;;
60038;SDS011;45916;52.734;6.544;2023-04-08T09:05:01;14.65;;;13.25;;
60038;SDS011;45916;52.734;6.544;2023-04-08T09:07:28;16.27;;;13.77;;
60038;SDS011;45916;52.734;6.544;2023-04-08T09:09:56;14.70;;;13.20;;
60038;SDS011;45916;52.734;6.544;2023-04-08T09:12:22;14.48;;;13.05;;
60038;SDS011;45916;52.734;6.544;2023-04-08T09:14:49;15.43;;;13.83;;
60038;SDS011;45916;52.734;6.544;2023-04-08T09:17:15;15.52;;;14.02;;
60038;SDS011;45916;52.734;6.544;2023-04-08T09:25:21;14.75;;;13.35;;
60038;SDS011;45916;52.734;6.544;2023-04-08T09:27:48;14.55;;;13.15;;
60038;SDS011;45916;52.734;6.544;2023-04-08T09:30:16;14.52;;;13.23;;
60038;SDS011;45916;52.734;6.544;2023-04-08T09:32:51;15.95;;;14.27;;
60038;SDS011;45916;52.734;6.544;2023-04-08T09:35:19;14.98;;;13.52;;
60038;SDS011;45916;52.734;6.544;2023-04-08T09:37:46;15.13;;;13.63;;
60038;SDS011;45916;52.734;6.544;2023-04-08T09:40:13;14.52;;;13.02;;
60038;SDS011;45916;52.734;6.544;2023-04-08T09:42:46;14.10;;;12.70;;
60038;SDS011;45916;52.734;6.544;2023-04-08T09:45:15;15.60;;;14.00;;
60038;SDS011;45916;52.734;6.544;2023-04-08T09:47:54;14.90;;;13.40;;
60038;SDS011;45916;52.734;6.544;2023-04-08T09:50:26;14.90;;;13.38;;
60038;SDS011;45916;52.734;6.544;2023-04-08T09:53:00;15.27;;;13.68;;
60038;SDS011;45916;52.734;6.544;2023-04-08T09:55:33;15.80;;;14.30;;
60038;SDS011;45916;52.734;6.544;2023-04-08T10:00:39;15.68;;;13.73;;
60038;SDS011;45916;52.734;6.544;2023-04-08T10:05:48;14.52;;;13.07;;
60038;SDS011;45916;52.734;6.544;2023-04-08T10:08:16;15.18;;;13.65;;
60038;SDS011;45916;52.734;6.544;2023-04-08T10:10:52;15.15;;;13.70;;
60038;SDS011;45916;52.734;6.544;2023-04-08T10:13:19;16.08;;;13.95;;
60038;SDS011;45916;52.734;6.544;2023-04-08T10:15:45;16.02;;;14.32;;
60038;SDS011;45916;52.734;6.544;2023-04-08T10:20:46;15.40;;;13.88;;
60038;SDS011;45916;52.734;6.544;2023-04-08T10:23:16;15.40;;;13.90;;
60038;SDS011;45916;52.734;6.544;2023-04-08T10:25:43;15.80;;;14.20;;
60038;SDS011;45916;52.734;6.544;2023-04-08T10:30:51;16.67;;;14.07;;
60038;SDS011;45916;52.734;6.544;2023-04-08T10:33:24;16.80;;;15.23;;
60038;SDS011;45916;52.734;6.544;2023-04-08T10:38:34;15.35;;;13.77;;
60038;SDS011;45916;52.734;6.544;2023-04-08T10:41:00;16.33;;;14.73;;
60038;SDS011;45916;52.734;6.544;2023-04-08T10:43:30;16.88;;;15.18;;
60038;SDS011;45916;52.734;6.544;2023-04-08T10:45:59;16.40;;;14.60;;
60038;SDS011;45916;52.734;6.544;2023-04-08T10:48:25;17.35;;;15.55;;
60038;SDS011;45916;52.734;6.544;2023-04-08T10:50:54;16.27;;;14.27;;
60038;SDS011;45916;52.734;6.544;2023-04-08T10:55:53;17.08;;;15.27;;
60038;SDS011;45916;52.734;6.544;2023-04-08T10:58:27;17.48;;;15.50;;
60038;SDS011;45916;52.734;6.544;2023-04-08T11:00:52;17.52;;;15.52;;
60038;SDS011;45916;52.734;6.544;2023-04-08T11:03:18;15.95;;;14.30;;
60038;SDS011;45916;52.734;6.544;2023-04-08T11:05:44;17.60;;;15.80;;
60038;SDS011;45916;52.734;6.544;2023-04-08T11:08:10;18.05;;;16.15;;
60038;SDS011;45916;52.734;6.544;2023-04-08T11:10:36;16.92;;;15.23;;
60038;SDS011;45916;52.734;6.544;2023-04-08T11:13:02;16.70;;;15.10;;
60038;SDS011;45916;52.734;6.544;2023-04-08T11:15:34;17.50;;;15.68;;
60038;SDS011;45916;52.734;6.544;2023-04-08T11:18:04;16.85;;;15.05;;
60038;SDS011;45916;52.734;6.544;2023-04-08T11:20:31;17.13;;;15.15;;
60038;SDS011;45916;52.734;6.544;2023-04-08T11:23:01;15.90;;;14.23;;
60038;SDS011;45916;52.734;6.544;2023-04-08T11:25:27;16.25;;;14.55;;
60038;SDS011;45916;52.734;6.544;2023-04-08T11:27:53;16.35;;;14.75;;
60038;SDS011;45916;52.734;6.544;2023-04-08T11:30:20;16.50;;;14.80;;
60038;SDS011;45916;52.734;6.544;2023-04-08T11:32:46;16.10;;;14.27;;
60038;SDS011;45916;52.734;6.544;2023-04-08T11:35:12;16.40;;;14.70;;
60038;SDS011;45916;52.734;6.544;2023-04-08T11:37:41;17.13;;;14.63;;
60038;SDS011;45916;52.734;6.544;2023-04-08T11:40:08;16.17;;;14.07;;
60038;SDS011;45916;52.734;6.544;2023-04-08T11:42:34;16.23;;;14.50;;
60038;SDS011;45916;52.734;6.544;2023-04-08T11:45:00;17.35;;;14.55;;
60038;SDS011;45916;52.734;6.544;2023-04-08T11:47:32;18.80;;;14.15;;
60038;SDS011;45916;52.734;6.544;2023-04-08T11:49:58;16.77;;;14.07;;
60038;SDS011;45916;52.734;6.544;2023-04-08T11:52:44;14.98;;;13.40;;
60038;SDS011;45916;52.734;6.544;2023-04-08T11:55:12;16.42;;;13.52;;
60038;SDS011;45916;52.734;6.544;2023-04-08T11:57:56;16.25;;;14.30;;
60038;SDS011;45916;52.734;6.544;2023-04-08T12:00:27;15.80;;;13.35;;
60038;SDS011;45916;52.734;6.544;2023-04-08T12:02:53;16.05;;;13.43;;
60038;SDS011;45916;52.734;6.544;2023-04-08T12:05:18;14.82;;;12.90;;
60038;SDS011;45916;52.734;6.544;2023-04-08T12:07:45;13.57;;;12.10;;
60038;SDS011;45916;52.734;6.544;2023-04-08T12:10:11;16.48;;;14.57;;
60038;SDS011;45916;52.734;6.544;2023-04-08T12:12:38;17.30;;;15.02;;
60038;SDS011;45916;52.734;6.544;2023-04-08T12:15:04;14.77;;;12.98;;
60038;SDS011;45916;52.734;6.544;2023-04-08T12:17:32;15.65;;;13.65;;
60038;SDS011;45916;52.734;6.544;2023-04-08T12:19:58;16.95;;;13.80;;
60038;SDS011;45916;52.734;6.544;2023-04-08T12:22:25;18.05;;;15.43;;
60038;SDS011;45916;52.734;6.544;2023-04-08T12:24:50;15.60;;;13.63;;
60038;SDS011;45916;52.734;6.544;2023-04-08T12:27:16;17.20;;;13.98;;
60038;SDS011;45916;52.734;6.544;2023-04-08T12:29:42;16.40;;;14.25;;
60038;SDS011;45916;52.734;6.544;2023-04-08T12:32:10;15.88;;;14.02;;
60038;SDS011;45916;52.734;6.544;2023-04-08T12:34:36;16.58;;;14.57;;
60038;SDS011;45916;52.734;6.544;2023-04-08T12:37:01;17.35;;;14.32;;
60038;SDS011;45916;52.734;6.544;2023-04-08T12:39:27;17.75;;;14.48;;
60038;SDS011;45916;52.734;6.544;2023-04-08T12:41:53;17.50;;;14.48;;
60038;SDS011;45916;52.734;6.544;2023-04-08T12:44:18;16.10;;;14.27;;
60038;SDS011;45916;52.734;6.544;2023-04-08T12:46:45;17.67;;;15.38;;
60038;SDS011;45916;52.734;6.544;2023-04-08T12:49:10;18.40;;;15.63;;
60038;SDS011;45916;52.734;6.544;2023-04-08T12:51:36;18.98;;;15.38;;
60038;SDS011;45916;52.734;6.544;2023-04-08T12:54:02;18.67;;;15.65;;
60038;SDS011;45916;52.734;6.544;2023-04-08T12:56:28;17.50;;;14.27;;
60038;SDS011;45916;52.734;6.544;2023-04-08T12:58:55;16.98;;;15.05;;
60038;SDS011;45916;52.734;6.544;2023-04-08T13:01:21;17.42;;;15.35;;
60038;SDS011;45916;52.734;6.544;2023-04-08T13:03:47;16.45;;;14.50;;
60038;SDS011;45916;52.734;6.544;2023-04-08T13:06:13;18.90;;;16.45;;
60038;SDS011;45916;52.734;6.544;2023-04-08T13:08:39;20.00;;;16.88;;
60038;SDS011;45916;52.734;6.544;2023-04-08T13:11:06;20.48;;;16.08;;
60038;SDS011;45916;52.734;6.544;2023-04-08T13:13:32;19.52;;;16.48;;
60038;SDS011;45916;52.734;6.544;2023-04-08T13:15:58;20.08;;;14.30;;
60038;SDS011;45916;52.734;6.544;2023-04-08T13:18:24;19.35;;;15.52;;
60038;SDS011;45916;52.734;6.544;2023-04-08T13:20:49;20.08;;;16.42;;
60038;SDS011;45916;52.734;6.544;2023-04-08T13:23:15;20.60;;;16.75;;
60038;SDS011;45916;52.734;6.544;2023-04-08T13:25:45;18.98;;;16.10;;
60038;SDS011;45916;52.734;6.544;2023-04-08T13:28:10;21.73;;;18.38;;
60038;SDS011;45916;52.734;6.544;2023-04-08T13:30:36;20.75;;;17.58;;
60038;SDS011;45916;52.734;6.544;2023-04-08T13:33:02;21.70;;;17.23;;
60038;SDS011;45916;52.734;6.544;2023-04-08T13:35:28;20.40;;;16.77;;
60038;SDS011;45916;52.734;6.544;2023-04-08T13:37:54;20.98;;;17.67;;
60038;SDS011;45916;52.734;6.544;2023-04-08T13:40:20;21.25;;;17.67;;
60038;SDS011;45916;52.734;6.544;2023-04-08T13:42:46;19.65;;;17.52;;
60038;SDS011;45916;52.734;6.544;2023-04-08T13:45:12;23.00;;;18.45;;
60038;SDS011;45916;52.734;6.544;2023-04-08T13:47:41;21.60;;;19.05;;
60038;SDS011;45916;52.734;6.544;2023-04-08T13:50:06;23.02;;;19.58;;
60038;SDS011;45916;52.734;6.544;2023-04-08T13:52:33;23.52;;;19.20;;
60038;SDS011;45916;52.734;6.544;2023-04-08T13:54:58;25.30;;;20.60;;
60038;SDS011;45916;52.734;6.544;2023-04-08T13:57:24;24.00;;;21.02;;
60038;SDS011;45916;52.734;6.544;2023-04-08T13:59:50;27.73;;;22.55;;
60038;SDS011;45916;52.734;6.544;2023-04-08T14:02:16;27.38;;;21.88;;
60038;SDS011;45916;52.734;6.544;2023-04-08T14:04:42;23.75;;;20.20;;
60038;SDS011;45916;52.734;6.544;2023-04-08T14:07:09;21.90;;;19.30;;
60038;SDS011;45916;52.734;6.544;2023-04-08T14:09:38;27.33;;;22.17;;
60038;SDS011;45916;52.734;6.544;2023-04-08T14:12:04;28.70;;;22.88;;
60038;SDS011;45916;52.734;6.544;2023-04-08T14:14:30;25.90;;;23.02;;
60038;SDS011;45916;52.734;6.544;2023-04-08T14:16:56;26.75;;;20.75;;
60038;SDS011;45916;52.734;6.544;2023-04-08T14:19:21;29.27;;;23.67;;
60038;SDS011;45916;52.734;6.544;2023-04-08T14:21:47;30.23;;;23.25;;
60038;SDS011;45916;52.734;6.544;2023-04-08T14:24:13;29.17;;;24.17;;
60038;SDS011;45916;52.734;6.544;2023-04-08T14:26:39;33.38;;;27.50;;
60038;SDS011;45916;52.734;6.544;2023-04-08T14:29:05;37.03;;;29.90;;
60038;SDS011;45916;52.734;6.544;2023-04-08T14:31:32;37.05;;;29.08;;
60038;SDS011;45916;52.734;6.544;2023-04-08T14:33:59;37.95;;;29.38;;
60038;SDS011;45916;52.734;6.544;2023-04-08T14:36:25;38.47;;;30.60;;
60038;SDS011;45916;52.734;6.544;2023-04-08T14:38:52;37.00;;;28.45;;
60038;SDS011;45916;52.734;6.544;2023-04-08T14:41:18;34.88;;;28.73;;
60038;SDS011;45916;52.734;6.544;2023-04-08T14:43:45;37.30;;;29.67;;
60038;SDS011;45916;52.734;6.544;2023-04-08T14:46:11;33.30;;;27.13;;
60038;SDS011;45916;52.734;6.544;2023-04-08T14:48:37;39.38;;;31.08;;
60038;SDS011;45916;52.734;6.544;2023-04-08T14:51:03;36.97;;;30.00;;
60038;SDS011;45916;52.734;6.544;2023-04-08T14:53:29;39.92;;;32.30;;
60038;SDS011;45916;52.734;6.544;2023-04-08T14:55:54;39.92;;;32.97;;